createdAt,value
2019-03-26T00:01:11.919Z,27.32
2019-03-26T00:03:15.530Z,26.80
2019-03-26T00:05:19.173Z,28.60
2019-03-26T00:07:22.815Z,26.75
2019-03-26T00:09:26.483Z,31.05
2019-03-26T00:11:30.055Z,26.80
2019-03-26T00:13:33.663Z,25.92
2019-03-26T00:15:37.226Z,24.10
2019-03-26T00:17:40.778Z,24.98
2019-03-26T00:19:44.376Z,31.65
2019-03-26T00:21:48.016Z,25.82
2019-03-26T00:23:51.591Z,22.00
2019-03-26T00:25:55.265Z,27.42
2019-03-26T00:27:58.836Z,31.77
2019-03-26T00:30:02.486Z,30.77
2019-03-26T00:32:06.081Z,28.12
2019-03-26T00:34:19.222Z,25.72
2019-03-26T00:36:14.875Z,23.77
2019-03-26T00:38:18.438Z,27.73
2019-03-26T00:40:22.032Z,24.92
2019-03-26T00:42:25.685Z,25.52
2019-03-26T00:44:29.259Z,22.07
2019-03-26T00:46:32.842Z,26.05
2019-03-26T00:48:36.439Z,24.98
2019-03-26T00:50:40.002Z,22.70
2019-03-26T00:52:43.560Z,23.40
2019-03-26T00:54:47.188Z,22.98
2019-03-26T00:56:50.747Z,24.80
2019-03-26T00:58:54.425Z,26.10
2019-03-26T01:00:57.991Z,25.72
2019-03-26T01:03:01.553Z,30.15
2019-03-26T01:05:07.505Z,26.40
2019-03-26T01:07:11.072Z,26.85
2019-03-26T01:09:14.635Z,23.98
2019-03-26T01:11:18.197Z,25.40
2019-03-26T01:13:21.766Z,26.70
2019-03-26T01:15:25.356Z,37.08
2019-03-26T01:17:29.054Z,29.35
2019-03-26T01:19:32.722Z,27.58
2019-03-26T01:21:36.308Z,26.65
2019-03-26T01:23:39.922Z,25.57
2019-03-26T01:25:43.480Z,23.32
2019-03-26T01:27:47.145Z,24.32
2019-03-26T01:29:50.781Z,26.70
2019-03-26T01:31:54.397Z,24.60
2019-03-26T01:33:57.973Z,24.80
2019-03-26T01:36:01.543Z,25.27
2019-03-26T01:38:05.164Z,24.85
2019-03-26T01:40:08.902Z,21.90
2019-03-26T01:42:12.464Z,25.90
2019-03-26T01:44:16.129Z,26.35
2019-03-26T01:46:19.775Z,25.17
2019-03-26T01:48:23.350Z,24.43
2019-03-26T01:50:26.955Z,22.50
2019-03-26T01:52:30.515Z,27.25
2019-03-26T01:54:34.113Z,28.00
2019-03-26T01:56:37.711Z,26.07
2019-03-26T01:58:41.309Z,22.15
2019-03-26T02:00:45.108Z,24.43
2019-03-26T02:02:48.679Z,26.62
2019-03-26T02:04:59.906Z,24.77
2019-03-26T02:06:57.474Z,22.48
2019-03-26T02:09:01.105Z,24.57
2019-03-26T02:11:04.770Z,26.45
2019-03-26T02:13:08.912Z,24.10
2019-03-26T02:15:15.584Z,20.65
2019-03-26T02:17:19.179Z,22.98
2019-03-26T02:19:22.744Z,26.77
2019-03-26T02:21:26.306Z,25.45
2019-03-26T02:23:29.891Z,21.97
2019-03-26T02:25:33.469Z,24.80
2019-03-26T02:27:37.032Z,23.77
2019-03-26T02:29:40.624Z,25.75
2019-03-26T02:31:44.264Z,24.98
2019-03-26T02:33:47.862Z,28.52
2019-03-26T02:35:51.443Z,23.25
2019-03-26T02:37:55.263Z,25.45
2019-03-26T02:39:58.866Z,27.58
2019-03-26T02:42:02.418Z,29.40
2019-03-26T02:44:05.979Z,27.50
2019-03-26T02:46:09.546Z,33.73
2019-03-26T02:48:13.103Z,28.07
2019-03-26T02:50:16.691Z,27.80
2019-03-26T02:52:20.369Z,28.20
2019-03-26T02:54:23.955Z,26.23
2019-03-26T02:56:27.629Z,27.48
2019-03-26T02:58:31.181Z,27.30
2019-03-26T03:00:34.861Z,24.95
2019-03-26T03:02:38.429Z,31.68
2019-03-26T03:04:41.994Z,27.52
2019-03-26T03:06:45.595Z,29.32
2019-03-26T03:08:49.246Z,28.27
2019-03-26T03:10:52.948Z,26.27
2019-03-26T03:12:56.618Z,30.45
2019-03-26T03:15:00.491Z,27.60
2019-03-26T03:17:04.172Z,31.02
2019-03-26T03:19:07.771Z,25.12
2019-03-26T03:21:11.455Z,24.30
2019-03-26T03:23:15.013Z,25.50
2019-03-26T03:25:18.711Z,26.82
2019-03-26T03:27:22.241Z,25.70
2019-03-26T03:29:25.906Z,24.15
2019-03-26T03:31:29.459Z,23.55
2019-03-26T03:33:33.033Z,26.30
2019-03-26T03:35:51.449Z,20.82
2019-03-26T03:37:41.831Z,23.18
2019-03-26T03:39:45.397Z,25.57
2019-03-26T03:41:48.989Z,23.47
2019-03-26T03:43:52.555Z,24.77
2019-03-26T03:45:56.216Z,27.32
2019-03-26T03:48:00.655Z,27.50
2019-03-26T03:50:05.580Z,23.50
2019-03-26T03:52:11.068Z,25.48
2019-03-26T03:54:15.181Z,28.02
2019-03-26T03:56:22.230Z,26.82
2019-03-26T03:58:28.206Z,26.90
2019-03-26T04:00:34.286Z,24.65
2019-03-26T04:02:37.881Z,28.98
2019-03-26T04:04:41.455Z,23.98
2019-03-26T04:06:45.025Z,27.60
2019-03-26T04:08:48.620Z,25.25
2019-03-26T04:10:52.228Z,26.02
2019-03-26T04:12:55.772Z,28.07
2019-03-26T04:14:59.385Z,31.02
2019-03-26T04:17:02.938Z,28.55
2019-03-26T04:19:06.677Z,25.43
2019-03-26T04:21:10.371Z,27.27
2019-03-26T04:23:13.934Z,28.17
2019-03-26T04:25:17.609Z,25.52
2019-03-26T04:27:21.201Z,30.57
2019-03-26T04:29:24.903Z,34.50
2019-03-26T04:31:28.470Z,30.65
2019-03-26T04:33:32.585Z,27.60
2019-03-26T04:35:36.259Z,28.07
2019-03-26T04:37:39.822Z,30.40
2019-03-26T04:39:43.402Z,28.20
2019-03-26T04:41:47.227Z,28.95
2019-03-26T04:43:50.847Z,27.70
2019-03-26T04:45:54.443Z,28.50
2019-03-26T04:47:58.039Z,26.70
2019-03-26T04:50:01.649Z,29.12
2019-03-26T04:52:05.213Z,24.77
2019-03-26T04:54:08.817Z,25.43
2019-03-26T04:56:12.448Z,28.90
2019-03-26T04:58:16.080Z,31.25
2019-03-26T05:00:19.907Z,27.02
2019-03-26T05:02:23.480Z,31.45
2019-03-26T05:04:27.050Z,26.23
2019-03-26T05:06:37.845Z,24.45
2019-03-26T05:08:35.862Z,27.93
2019-03-26T05:10:39.450Z,27.40
2019-03-26T05:12:43.028Z,27.45
2019-03-26T05:14:46.601Z,28.70
2019-03-26T05:16:50.255Z,31.33
2019-03-26T05:18:53.748Z,30.15
2019-03-26T05:20:57.313Z,30.37
2019-03-26T05:23:00.919Z,30.65
2019-03-26T05:25:06.453Z,31.35
2019-03-26T05:27:10.026Z,32.58
2019-03-26T05:29:13.628Z,32.93
2019-03-26T05:31:17.298Z,33.63
2019-03-26T05:33:20.849Z,32.10
2019-03-26T05:35:24.415Z,29.30
2019-03-26T05:37:27.980Z,30.40
2019-03-26T05:39:31.540Z,30.25
2019-03-26T05:41:35.134Z,35.78
2019-03-26T05:43:38.702Z,33.25
2019-03-26T05:45:42.302Z,36.50
2019-03-26T05:47:45.865Z,37.63
2019-03-26T05:49:49.428Z,33.92
2019-03-26T05:51:53.022Z,30.27
2019-03-26T05:53:56.585Z,32.78
2019-03-26T05:56:00.267Z,33.10
2019-03-26T05:58:03.967Z,34.80
2019-03-26T06:00:12.255Z,31.87
2019-03-26T06:02:18.032Z,28.05
2019-03-26T06:04:21.170Z,31.60
2019-03-26T06:06:24.750Z,31.57
2019-03-26T06:08:28.348Z,30.08
2019-03-26T06:10:31.923Z,23.12
2019-03-26T06:12:35.467Z,27.05
2019-03-26T06:14:39.083Z,21.30
2019-03-26T06:16:42.639Z,23.32
2019-03-26T06:18:46.232Z,21.77
2019-03-26T06:20:49.787Z,25.00
2019-03-26T06:22:53.507Z,20.05
2019-03-26T06:24:57.104Z,21.50
2019-03-26T06:27:00.674Z,20.88
2019-03-26T06:29:04.356Z,23.47
2019-03-26T06:31:07.943Z,29.15
2019-03-26T06:33:11.510Z,23.83
2019-03-26T06:35:15.119Z,23.50
2019-03-26T06:37:18.686Z,22.82
2019-03-26T06:39:22.266Z,24.72
2019-03-26T06:41:25.853Z,23.60
2019-03-26T06:43:29.414Z,23.00
2019-03-26T06:45:32.975Z,23.77
2019-03-26T06:47:36.631Z,23.22
2019-03-26T06:49:40.192Z,23.35
2019-03-26T06:51:43.775Z,23.30
2019-03-26T06:53:47.352Z,24.92
2019-03-26T06:55:50.918Z,20.52
2019-03-26T06:57:54.508Z,22.05
2019-03-26T06:59:58.071Z,22.17
2019-03-26T07:02:02.084Z,21.70
2019-03-26T07:04:05.737Z,22.27
2019-03-26T07:06:09.394Z,19.55
2019-03-26T07:08:12.968Z,21.35
2019-03-26T07:10:19.617Z,21.87
2019-03-26T07:12:23.219Z,21.35
2019-03-26T07:14:26.766Z,21.42
2019-03-26T07:16:30.338Z,24.98
2019-03-26T07:18:33.937Z,24.60
2019-03-26T07:20:37.501Z,22.40
2019-03-26T07:22:41.064Z,18.77
2019-03-26T07:24:44.720Z,23.80
2019-03-26T07:26:48.353Z,22.22
2019-03-26T07:28:52.015Z,26.62
2019-03-26T07:30:56.517Z,25.17
2019-03-26T07:33:00.103Z,25.43
2019-03-26T07:35:05.044Z,27.90
2019-03-26T07:37:08.603Z,25.65
2019-03-26T07:39:12.176Z,25.90
2019-03-26T07:41:15.827Z,28.27
2019-03-26T07:43:19.385Z,25.10
2019-03-26T07:45:22.969Z,26.93
2019-03-26T07:47:26.537Z,25.12
2019-03-26T07:49:30.111Z,26.33
2019-03-26T07:51:33.675Z,24.47
2019-03-26T07:53:37.235Z,26.23
2019-03-26T07:57:43.773Z,25.65
2019-03-26T07:59:47.420Z,29.05
2019-03-26T08:01:51.004Z,21.15
2019-03-26T08:05:57.383Z,22.07
2019-03-26T08:08:00.979Z,18.70
2019-03-26T08:10:09.746Z,18.02
2019-03-26T08:12:13.318Z,19.45
2019-03-26T08:14:17.045Z,17.82
2019-03-26T08:16:20.739Z,22.02
2019-03-26T08:20:27.099Z,21.30
2019-03-26T08:22:30.678Z,16.87
2019-03-26T08:26:37.072Z,18.17
2019-03-26T08:28:40.635Z,18.15
2019-03-26T08:32:47.283Z,17.92
2019-03-26T08:34:50.840Z,17.48
